Relevés horaires Bouveret (Suisse)


Relevés horaires à Bouveret - Lundi 16 Févr. 2015
Heure UTC1 Température [°C] Vent [km/h] Hum. [%] Pres.4 [hPa] Visi. [Km] Nébu. [octa] Préc.5 [mm] Cond.
2m. Res. Ros. Dir.2 Vit. Moy. Raf.3
23:00 3.0 3.0 1.2 O 3.7 7.4 13.0 88 1023.3(1.9/3h) -- -- -- --
22:00 3.1 1.7 1.4 SO 5.6 5.6 7.4 89 1022.8(1.9/3h) -- -- -- --
21:00 3.1 1.7 1.4 SSO 5.6 7.4 9.3 89 1022(1.5/3h) -- -- -- --
20:00 3.3 3.3 1.4 OSO 1.9 7.4 9.3 87 1021.3(1.3/3h) -- -- -- --
19:00 3.3 3.3 1.5 O 3.7 5.6 7.4 88 1020.8(1.1/3h) -- -- -- --
18:00 3.3 3.3 1.3 ENE 1.9 16.7 18.5 87 1020.4(0.9/3h) -- -- -- --
17:00 3.4 0.9 1.7 O 9.3 9.3 13.0 89 1019.9(0.5/3h) -- -- -- --
16:00 3.4 2 1.5 O 5.6 5.6 7.4 87 1019.6(-0.1/3h) -- -- -- --
15:00 3.4 2 1.2 O 5.6 16.7 18.5 85 1019.5(-0.3/3h) -- -- -- --
14:00 3.3 0.8 1.3 ONO 9.3 13.0 18.5 87 1019.4(-0.5/3h) -- -- -- --
13:00 3.2 -0.4 1.4 ONO 14.8 16.7 18.5 88 1019.7(0.1/3h) -- -- -- --
12:00 3.3 -0.3 1.6 ONO 14.8 16.7 18.5 89 1019.8(0.3/3h) -- -- -- --
11:00 3.4 0.1 1.3 NO 13.0 13.0 16.7 86 1019.9(0.6/3h) -- -- -- --
10:00 3.2 1.2 0.8 ONO 7.4 9.3 13.0 84 1019.6(0.8/3h) -- -- -- --
09:00 3.2 0.7 0.7 ONO 9.3 16.7 18.5 84 1019.5(1.1/3h) -- -- -- --
08:00 3.3 1.3 1.1 ONO 7.4 9.3 13.0 85 1019.3(1.4/3h) -- -- -- --
07:00 3.3 1.9 0.7 NNO 5.6 16.7 18.5 83 1018.8(1.5/3h) -- -- -- --
06:00 3.1 -0.9 0.4 N 16.7 16.7 18.5 82 1018.4(1.5/3h) -- -- -- --
05:00 4.2 1.9 2.6 ONO 9.3 9.3 11.1 89 1017.7(1.0/3h) -- -- -- --
04:00 2.1 0.5 0.9 SE 5.6 5.6 7.4 92 1017.4(0.9/3h) -- -- -- --
03:00 4.2 4.2 1.6 N 1.9 5.6 9.3 83 1016.6(0.6/3h) -- -- -- --
02:00 4.6 4.6 1.8 NNO 3.7 5.6 9.3 82 1016.6(1.3/3h) -- -- -- --
01:00 3.4 3.4 2.0 ENE 3.7 3.7 5.6 91 1016.2(0.9/3h) -- -- -- --
00:00 3.6 3.6 1.7 SE 1.9 9.3 13.0 87 1016.1(1.4/3h) -- -- -- --

1 Coordinated Universal Time. Actuellement il est 06:00 locale et 04:00 UTC.

2 Le vent souffle depuis la direction indiquée vers la direction oposée.

3 Les rafales max. sont disponible 40 min après l'heure du relevé.

4 Pour les stations d'altitude (plus de 600m) le géopotentiel du niveau le plus proche de la pression obligatoire est indiqué.

5 Les stations disposant d'un diffuseur peuvent indiquer "trace". Cela signifie que des précipitations ont touchés le sol mais que la quantité est inférieure à 0.1 mm.

Copyright

Les données affichées sur cette page sont la propriété exclusive de Météo Suisse.

Récapitulatif de la journée
Température [°C] Vent [km/h] Ensoleillement4 [h] Precipitations totale5 [mm] Pression [Hpa]
Min1 Max.2 Moy.3 Max. Min Max.
2.1 3.5 10.4 18.5 0 h 0 min 0 1016.1 1023.3

1 Température minimale relevée entre 18:00 UTC la veille et 18:00 UTC le jour donné.

2 Température maximale relevée entre 06:00 UTC le jour donné et 06:00 UTC le lendemain.

3 Vent moyen de la journée basé sur les relevés horaires.

4 Ensoleillement en heures relevé entre 06:00 UTC la veille et 06:00 UTC le jour donné.

5 Précipitations totales tombées entre 06:00 UTC la jour donné et 06:00 UTC le lendemain.

Graphiques horaires